RMI weather

Federico Fellini International Airport
Rimini, Emilia-Romagna, Italy

Public forecast

Using degrees Celsius for public forecast. Weather courtesy of forecast.io.

METAR (pilot weather report)

Retrieved 2019/05/21 07:20 UTC (37 minutes ago):

LIPR 210720Z 19006KT 9999 SCT070 18/12 Q1008

TAF (pilot weather forecast)

Forecast is more than 12 hours old.

Retrieved 2016/08/23 03:00 UTC (3 years ago):

TAF LIPR 230200Z 2303/2312 04007KT CAVOK BECMG 2308/2310 02010KT